sensor_id;sensor_type;location;lat;lon;timestamp;P1;durP1;ratioP1;P2;durP2;ratioP2
27893;SDS011;15240;50.812;4.792;2023-05-29T00:02:10;13.23;;;6.23;;
27893;SDS011;15240;50.812;4.792;2023-05-29T00:04:36;13.97;;;5.87;;
27893;SDS011;15240;50.812;4.792;2023-05-29T00:07:03;16.13;;;6.57;;
27893;SDS011;15240;50.812;4.792;2023-05-29T00:09:29;14.30;;;6.40;;
27893;SDS011;15240;50.812;4.792;2023-05-29T00:11:56;12.00;;;6.30;;
27893;SDS011;15240;50.812;4.792;2023-05-29T00:14:22;12.20;;;6.80;;
27893;SDS011;15240;50.812;4.792;2023-05-29T00:16:49;12.87;;;6.37;;
27893;SDS011;15240;50.812;4.792;2023-05-29T00:19:16;12.60;;;6.33;;
27893;SDS011;15240;50.812;4.792;2023-05-29T00:21:42;11.63;;;5.93;;
27893;SDS011;15240;50.812;4.792;2023-05-29T00:24:08;9.83;;;6.40;;
27893;SDS011;15240;50.812;4.792;2023-05-29T00:26:34;11.77;;;6.80;;
27893;SDS011;15240;50.812;4.792;2023-05-29T00:29:00;15.37;;;6.80;;
27893;SDS011;15240;50.812;4.792;2023-05-29T00:31:26;15.30;;;6.43;;
27893;SDS011;15240;50.812;4.792;2023-05-29T00:33:53;13.97;;;6.83;;
27893;SDS011;15240;50.812;4.792;2023-05-29T00:36:19;13.13;;;7.03;;
27893;SDS011;15240;50.812;4.792;2023-05-29T00:38:45;12.30;;;6.77;;
27893;SDS011;15240;50.812;4.792;2023-05-29T00:41:14;10.30;;;6.23;;
27893;SDS011;15240;50.812;4.792;2023-05-29T00:43:41;11.20;;;5.83;;
27893;SDS011;15240;50.812;4.792;2023-05-29T00:46:07;14.23;;;6.93;;
27893;SDS011;15240;50.812;4.792;2023-05-29T00:48:34;11.63;;;6.40;;
27893;SDS011;15240;50.812;4.792;2023-05-29T00:51:00;11.30;;;6.47;;
27893;SDS011;15240;50.812;4.792;2023-05-29T00:53:26;13.60;;;6.90;;
27893;SDS011;15240;50.812;4.792;2023-05-29T00:55:53;12.37;;;6.93;;
27893;SDS011;15240;50.812;4.792;2023-05-29T00:58:20;12.87;;;6.70;;
27893;SDS011;15240;50.812;4.792;2023-05-29T01:00:46;14.53;;;6.87;;
27893;SDS011;15240;50.812;4.792;2023-05-29T01:03:12;10.27;;;6.50;;
27893;SDS011;15240;50.812;4.792;2023-05-29T01:05:42;10.63;;;6.03;;
27893;SDS011;15240;50.812;4.792;2023-05-29T01:08:08;12.57;;;6.90;;
27893;SDS011;15240;50.812;4.792;2023-05-29T01:10:35;12.03;;;6.80;;
27893;SDS011;15240;50.812;4.792;2023-05-29T01:18:17;13.13;;;7.63;;
27893;SDS011;15240;50.812;4.792;2023-05-29T01:20:48;11.97;;;7.40;;
27893;SDS011;15240;50.812;4.792;2023-05-29T01:23:37;16.63;;;8.07;;
27893;SDS011;15240;50.812;4.792;2023-05-29T01:28:51;16.73;;;8.40;;
27893;SDS011;15240;50.812;4.792;2023-05-29T01:31:19;15.07;;;8.33;;
27893;SDS011;15240;50.812;4.792;2023-05-29T01:33:53;16.07;;;8.30;;
27893;SDS011;15240;50.812;4.792;2023-05-29T01:36:20;17.13;;;8.83;;
27893;SDS011;15240;50.812;4.792;2023-05-29T01:38:46;18.17;;;8.97;;
27893;SDS011;15240;50.812;4.792;2023-05-29T01:41:13;16.63;;;10.23;;
27893;SDS011;15240;50.812;4.792;2023-05-29T01:43:40;20.07;;;10.07;;
27893;SDS011;15240;50.812;4.792;2023-05-29T01:46:06;20.33;;;10.53;;
27893;SDS011;15240;50.812;4.792;2023-05-29T01:48:32;22.27;;;10.87;;
27893;SDS011;15240;50.812;4.792;2023-05-29T01:50:58;23.13;;;10.17;;
27893;SDS011;15240;50.812;4.792;2023-05-29T01:53:25;24.97;;;10.57;;
27893;SDS011;15240;50.812;4.792;2023-05-29T01:55:51;19.67;;;10.30;;
27893;SDS011;15240;50.812;4.792;2023-05-29T01:58:17;26.70;;;10.77;;
27893;SDS011;15240;50.812;4.792;2023-05-29T02:00:44;21.23;;;11.17;;
27893;SDS011;15240;50.812;4.792;2023-05-29T02:03:10;23.37;;;12.03;;
27893;SDS011;15240;50.812;4.792;2023-05-29T02:05:36;20.20;;;11.53;;
27893;SDS011;15240;50.812;4.792;2023-05-29T02:08:02;20.17;;;10.97;;
27893;SDS011;15240;50.812;4.792;2023-05-29T02:10:28;20.93;;;11.13;;
27893;SDS011;15240;50.812;4.792;2023-05-29T02:12:56;21.97;;;12.03;;
27893;SDS011;15240;50.812;4.792;2023-05-29T02:15:24;26.37;;;11.20;;
27893;SDS011;15240;50.812;4.792;2023-05-29T02:17:50;21.73;;;11.30;;
27893;SDS011;15240;50.812;4.792;2023-05-29T02:20:16;24.47;;;12.03;;
27893;SDS011;15240;50.812;4.792;2023-05-29T02:22:42;23.77;;;11.90;;
27893;SDS011;15240;50.812;4.792;2023-05-29T02:25:08;22.93;;;11.80;;
27893;SDS011;15240;50.812;4.792;2023-05-29T02:27:35;21.63;;;11.47;;
27893;SDS011;15240;50.812;4.792;2023-05-29T02:30:01;23.20;;;11.40;;
27893;SDS011;15240;50.812;4.792;2023-05-29T02:32:27;23.97;;;12.33;;
27893;SDS011;15240;50.812;4.792;2023-05-29T02:34:54;21.87;;;11.13;;
27893;SDS011;15240;50.812;4.792;2023-05-29T02:37:20;23.10;;;11.57;;
27893;SDS011;15240;50.812;4.792;2023-05-29T02:39:50;23.93;;;11.83;;
27893;SDS011;15240;50.812;4.792;2023-05-29T02:42:16;22.73;;;11.93;;
27893;SDS011;15240;50.812;4.792;2023-05-29T02:44:42;22.47;;;11.67;;
27893;SDS011;15240;50.812;4.792;2023-05-29T02:47:08;25.07;;;12.47;;
27893;SDS011;15240;50.812;4.792;2023-05-29T02:49:35;24.10;;;11.83;;
27893;SDS011;15240;50.812;4.792;2023-05-29T02:52:01;21.87;;;12.17;;
27893;SDS011;15240;50.812;4.792;2023-05-29T02:54:27;25.23;;;11.50;;
27893;SDS011;15240;50.812;4.792;2023-05-29T02:56:53;28.57;;;11.97;;
27893;SDS011;15240;50.812;4.792;2023-05-29T02:59:19;23.03;;;10.80;;
27893;SDS011;15240;50.812;4.792;2023-05-29T03:01:45;23.17;;;11.00;;
27893;SDS011;15240;50.812;4.792;2023-05-29T03:04:13;21.20;;;10.07;;
27893;SDS011;15240;50.812;4.792;2023-05-29T03:06:39;21.97;;;10.50;;
27893;SDS011;15240;50.812;4.792;2023-05-29T03:09:05;26.17;;;10.67;;
27893;SDS011;15240;50.812;4.792;2023-05-29T03:11:31;26.20;;;10.53;;
27893;SDS011;15240;50.812;4.792;2023-05-29T03:13:58;20.93;;;9.00;;
27893;SDS011;15240;50.812;4.792;2023-05-29T03:16:24;25.20;;;10.30;;
27893;SDS011;15240;50.812;4.792;2023-05-29T03:18:50;23.17;;;9.00;;
27893;SDS011;15240;50.812;4.792;2023-05-29T03:21:16;19.63;;;9.17;;
27893;SDS011;15240;50.812;4.792;2023-05-29T03:23:42;23.03;;;9.37;;
27893;SDS011;15240;50.812;4.792;2023-05-29T03:26:08;25.53;;;9.50;;
27893;SDS011;15240;50.812;4.792;2023-05-29T03:28:35;24.50;;;9.10;;
27893;SDS011;15240;50.812;4.792;2023-05-29T03:31:01;23.67;;;8.53;;
27893;SDS011;15240;50.812;4.792;2023-05-29T03:33:27;20.70;;;8.03;;
27893;SDS011;15240;50.812;4.792;2023-05-29T03:35:54;22.07;;;8.33;;
27893;SDS011;15240;50.812;4.792;2023-05-29T03:38:21;16.73;;;7.93;;
27893;SDS011;15240;50.812;4.792;2023-05-29T03:40:47;21.40;;;7.57;;
27893;SDS011;15240;50.812;4.792;2023-05-29T03:43:13;22.23;;;7.77;;
27893;SDS011;15240;50.812;4.792;2023-05-29T03:45:39;21.50;;;7.43;;
27893;SDS011;15240;50.812;4.792;2023-05-29T03:48:05;20.47;;;7.13;;
27893;SDS011;15240;50.812;4.792;2023-05-29T03:50:31;20.67;;;6.30;;
27893;SDS011;15240;50.812;4.792;2023-05-29T03:52:57;19.43;;;7.00;;
27893;SDS011;15240;50.812;4.792;2023-05-29T03:55:25;18.87;;;6.50;;
27893;SDS011;15240;50.812;4.792;2023-05-29T03:57:52;18.13;;;6.43;;
27893;SDS011;15240;50.812;4.792;2023-05-29T04:00:18;17.60;;;5.97;;
27893;SDS011;15240;50.812;4.792;2023-05-29T04:02:44;20.33;;;6.30;;
27893;SDS011;15240;50.812;4.792;2023-05-29T04:05:10;17.83;;;5.20;;
27893;SDS011;15240;50.812;4.792;2023-05-29T04:07:37;18.33;;;5.40;;
27893;SDS011;15240;50.812;4.792;2023-05-29T04:10:05;19.07;;;5.30;;
27893;SDS011;15240;50.812;4.792;2023-05-29T04:12:31;14.23;;;4.63;;
27893;SDS011;15240;50.812;4.792;2023-05-29T04:14:57;17.03;;;5.20;;
27893;SDS011;15240;50.812;4.792;2023-05-29T04:17:24;17.27;;;5.37;;
27893;SDS011;15240;50.812;4.792;2023-05-29T04:19:50;17.67;;;4.57;;
27893;SDS011;15240;50.812;4.792;2023-05-29T04:22:16;13.60;;;4.37;;
27893;SDS011;15240;50.812;4.792;2023-05-29T04:24:44;18.43;;;5.37;;
27893;SDS011;15240;50.812;4.792;2023-05-29T04:27:10;17.50;;;5.10;;
27893;SDS011;15240;50.812;4.792;2023-05-29T04:29:38;14.73;;;4.13;;
27893;SDS011;15240;50.812;4.792;2023-05-29T04:32:07;12.67;;;3.90;;
27893;SDS011;15240;50.812;4.792;2023-05-29T04:34:35;18.37;;;4.40;;
27893;SDS011;15240;50.812;4.792;2023-05-29T04:37:04;13.87;;;4.00;;
27893;SDS011;15240;50.812;4.792;2023-05-29T04:39:30;12.30;;;3.90;;
27893;SDS011;15240;50.812;4.792;2023-05-29T04:41:56;19.87;;;4.10;;
27893;SDS011;15240;50.812;4.792;2023-05-29T04:44:25;11.10;;;3.77;;
27893;SDS011;15240;50.812;4.792;2023-05-29T04:46:52;13.07;;;4.27;;
27893;SDS011;15240;50.812;4.792;2023-05-29T04:49:18;12.30;;;3.90;;
27893;SDS011;15240;50.812;4.792;2023-05-29T04:51:45;15.57;;;3.63;;
27893;SDS011;15240;50.812;4.792;2023-05-29T04:54:11;14.30;;;3.77;;
27893;SDS011;15240;50.812;4.792;2023-05-29T04:56:38;14.27;;;3.87;;
27893;SDS011;15240;50.812;4.792;2023-05-29T04:59:08;13.10;;;4.00;;
27893;SDS011;15240;50.812;4.792;2023-05-29T05:01:34;14.23;;;3.30;;
27893;SDS011;15240;50.812;4.792;2023-05-29T05:04:00;17.80;;;4.23;;
27893;SDS011;15240;50.812;4.792;2023-05-29T05:06:26;17.90;;;3.73;;
27893;SDS011;15240;50.812;4.792;2023-05-29T05:08:54;13.83;;;4.30;;
27893;SDS011;15240;50.812;4.792;2023-05-29T05:11:21;13.77;;;4.27;;
27893;SDS011;15240;50.812;4.792;2023-05-29T05:13:47;13.53;;;3.73;;
27893;SDS011;15240;50.812;4.792;2023-05-29T05:16:13;12.90;;;3.60;;
27893;SDS011;15240;50.812;4.792;2023-05-29T05:18:39;13.07;;;3.70;;
27893;SDS011;15240;50.812;4.792;2023-05-29T05:21:05;12.80;;;3.80;;
27893;SDS011;15240;50.812;4.792;2023-05-29T05:23:32;13.13;;;4.03;;
27893;SDS011;15240;50.812;4.792;2023-05-29T05:25:58;12.67;;;3.43;;
27893;SDS011;15240;50.812;4.792;2023-05-29T05:28:24;16.27;;;3.47;;
27893;SDS011;15240;50.812;4.792;2023-05-29T05:30:50;16.03;;;4.07;;
27893;SDS011;15240;50.812;4.792;2023-05-29T05:33:17;13.93;;;3.87;;
27893;SDS011;15240;50.812;4.792;2023-05-29T05:35:43;14.67;;;4.20;;
27893;SDS011;15240;50.812;4.792;2023-05-29T05:38:09;15.23;;;4.00;;
27893;SDS011;15240;50.812;4.792;2023-05-29T05:40:35;16.70;;;4.20;;
27893;SDS011;15240;50.812;4.792;2023-05-29T05:43:01;15.30;;;4.03;;
27893;SDS011;15240;50.812;4.792;2023-05-29T05:45:27;14.33;;;4.00;;
27893;SDS011;15240;50.812;4.792;2023-05-29T05:47:53;20.07;;;4.20;;
27893;SDS011;15240;50.812;4.792;2023-05-29T05:50:19;15.63;;;4.03;;
27893;SDS011;15240;50.812;4.792;2023-05-29T05:52:46;16.43;;;3.67;;
27893;SDS011;15240;50.812;4.792;2023-05-29T05:55:12;17.80;;;3.53;;
27893;SDS011;15240;50.812;4.792;2023-05-29T05:57:38;14.07;;;3.67;;
27893;SDS011;15240;50.812;4.792;2023-05-29T06:00:04;16.93;;;3.57;;
27893;SDS011;15240;50.812;4.792;2023-05-29T06:02:37;15.87;;;3.33;;
27893;SDS011;15240;50.812;4.792;2023-05-29T06:05:06;16.97;;;4.07;;
27893;SDS011;15240;50.812;4.792;2023-05-29T06:07:32;12.23;;;3.80;;
27893;SDS011;15240;50.812;4.792;2023-05-29T06:09:59;16.90;;;3.70;;
27893;SDS011;15240;50.812;4.792;2023-05-29T06:12:25;12.73;;;4.00;;
27893;SDS011;15240;50.812;4.792;2023-05-29T06:14:54;16.57;;;4.40;;
27893;SDS011;15240;50.812;4.792;2023-05-29T06:17:24;15.40;;;3.50;;
27893;SDS011;15240;50.812;4.792;2023-05-29T06:19:50;18.53;;;4.00;;
27893;SDS011;15240;50.812;4.792;2023-05-29T06:22:16;12.83;;;3.87;;
27893;SDS011;15240;50.812;4.792;2023-05-29T06:24:42;11.37;;;3.00;;
27893;SDS011;15240;50.812;4.792;2023-05-29T06:27:09;12.97;;;3.50;;
27893;SDS011;15240;50.812;4.792;2023-05-29T06:29:36;11.83;;;3.40;;
27893;SDS011;15240;50.812;4.792;2023-05-29T06:32:03;13.97;;;4.07;;
27893;SDS011;15240;50.812;4.792;2023-05-29T06:34:29;15.60;;;3.57;;
27893;SDS011;15240;50.812;4.792;2023-05-29T06:36:56;13.87;;;3.97;;
27893;SDS011;15240;50.812;4.792;2023-05-29T06:39:22;12.43;;;3.60;;
27893;SDS011;15240;50.812;4.792;2023-05-29T06:41:49;12.63;;;3.67;;
27893;SDS011;15240;50.812;4.792;2023-05-29T06:44:15;11.73;;;3.53;;
27893;SDS011;15240;50.812;4.792;2023-05-29T06:46:42;14.50;;;4.17;;
27893;SDS011;15240;50.812;4.792;2023-05-29T06:49:08;12.90;;;3.80;;
27893;SDS011;15240;50.812;4.792;2023-05-29T06:51:38;11.97;;;3.73;;
27893;SDS011;15240;50.812;4.792;2023-05-29T06:54:08;14.03;;;3.53;;
27893;SDS011;15240;50.812;4.792;2023-05-29T06:56:35;12.23;;;3.27;;
27893;SDS011;15240;50.812;4.792;2023-05-29T06:59:01;14.17;;;3.67;;
27893;SDS011;15240;50.812;4.792;2023-05-29T07:01:28;11.50;;;3.77;;
27893;SDS011;15240;50.812;4.792;2023-05-29T07:03:55;16.33;;;3.47;;
27893;SDS011;15240;50.812;4.792;2023-05-29T07:06:21;12.73;;;3.60;;
27893;SDS011;15240;50.812;4.792;2023-05-29T07:08:50;11.97;;;3.43;;
27893;SDS011;15240;50.812;4.792;2023-05-29T07:11:16;17.13;;;3.90;;
27893;SDS011;15240;50.812;4.792;2023-05-29T07:13:42;17.03;;;3.63;;
27893;SDS011;15240;50.812;4.792;2023-05-29T07:16:09;14.00;;;3.70;;
27893;SDS011;15240;50.812;4.792;2023-05-29T07:18:37;11.63;;;3.33;;
27893;SDS011;15240;50.812;4.792;2023-05-29T07:21:24;12.67;;;3.27;;
27893;SDS011;15240;50.812;4.792;2023-05-29T07:23:54;16.00;;;3.63;;
27893;SDS011;15240;50.812;4.792;2023-05-29T07:26:40;14.30;;;3.33;;
27893;SDS011;15240;50.812;4.792;2023-05-29T07:29:08;11.63;;;3.50;;
27893;SDS011;15240;50.812;4.792;2023-05-29T07:31:36;15.20;;;4.00;;
27893;SDS011;15240;50.812;4.792;2023-05-29T07:34:07;12.67;;;3.60;;
27893;SDS011;15240;50.812;4.792;2023-05-29T07:36:55;9.87;;;3.40;;
27893;SDS011;15240;50.812;4.792;2023-05-29T07:39:31;13.63;;;3.67;;
27893;SDS011;15240;50.812;4.792;2023-05-29T07:42:02;10.13;;;3.23;;
27893;SDS011;15240;50.812;4.792;2023-05-29T07:44:28;10.97;;;3.57;;
27893;SDS011;15240;50.812;4.792;2023-05-29T07:46:54;8.60;;;3.10;;
27893;SDS011;15240;50.812;4.792;2023-05-29T07:49:24;9.10;;;3.20;;
27893;SDS011;15240;50.812;4.792;2023-05-29T07:52:02;11.93;;;3.50;;
27893;SDS011;15240;50.812;4.792;2023-05-29T07:54:57;12.07;;;3.30;;
27893;SDS011;15240;50.812;4.792;2023-05-29T07:57:24;10.77;;;3.43;;
27893;SDS011;15240;50.812;4.792;2023-05-29T08:00:37;11.27;;;3.27;;
27893;SDS011;15240;50.812;4.792;2023-05-29T08:03:31;9.80;;;3.30;;
27893;SDS011;15240;50.812;4.792;2023-05-29T08:06:44;12.13;;;3.60;;
27893;SDS011;15240;50.812;4.792;2023-05-29T08:09:53;9.73;;;3.30;;
27893;SDS011;15240;50.812;4.792;2023-05-29T08:13:03;10.93;;;3.50;;
27893;SDS011;15240;50.812;4.792;2023-05-29T08:19:24;12.48;;;3.50;;
27893;SDS011;15240;50.812;4.792;2023-05-29T08:22:33;12.02;;;3.45;;
27893;SDS011;15240;50.812;4.792;2023-05-29T08:25:40;11.70;;;3.63;;
27893;SDS011;15240;50.812;4.792;2023-05-29T08:28:29;12.10;;;3.50;;
27893;SDS011;15240;50.812;4.792;2023-05-29T08:31:31;14.35;;;3.90;;
27893;SDS011;15240;50.812;4.792;2023-05-29T08:34:04;7.75;;;3.28;;
27893;SDS011;15240;50.812;4.792;2023-05-29T08:37:07;11.60;;;3.28;;
27893;SDS011;15240;50.812;4.792;2023-05-29T08:40:14;12.30;;;3.38;;
27893;SDS011;15240;50.812;4.792;2023-05-29T08:43:07;16.10;;;3.65;;
27893;SDS011;15240;50.812;4.792;2023-05-29T08:45:54;13.35;;;3.63;;
27893;SDS011;15240;50.812;4.792;2023-05-29T08:48:33;13.52;;;3.80;;
27893;SDS011;15240;50.812;4.792;2023-05-29T08:51:26;15.32;;;3.92;;
27893;SDS011;15240;50.812;4.792;2023-05-29T08:54:35;18.02;;;3.38;;
27893;SDS011;15240;50.812;4.792;2023-05-29T08:57:44;11.95;;;3.53;;
27893;SDS011;15240;50.812;4.792;2023-05-29T09:03:57;10.45;;;3.30;;
27893;SDS011;15240;50.812;4.792;2023-05-29T09:10:17;11.43;;;3.35;;
27893;SDS011;15240;50.812;4.792;2023-05-29T09:13:25;13.60;;;3.70;;
27893;SDS011;15240;50.812;4.792;2023-05-29T09:16:16;12.70;;;3.67;;
27893;SDS011;15240;50.812;4.792;2023-05-29T09:19:16;13.55;;;4.20;;
27893;SDS011;15240;50.812;4.792;2023-05-29T09:25:43;16.10;;;3.78;;
27893;SDS011;15240;50.812;4.792;2023-05-29T09:31:17;10.57;;;3.58;;
27893;SDS011;15240;50.812;4.792;2023-05-29T09:34:26;14.70;;;4.00;;
27893;SDS011;15240;50.812;4.792;2023-05-29T09:37:51;12.45;;;3.58;;
27893;SDS011;15240;50.812;4.792;2023-05-29T09:47:13;10.25;;;3.40;;
27893;SDS011;15240;50.812;4.792;2023-05-29T09:50:29;17.73;;;4.20;;
27893;SDS011;15240;50.812;4.792;2023-05-29T09:56:22;15.68;;;3.70;;
27893;SDS011;15240;50.812;4.792;2023-05-29T10:02:22;15.32;;;3.80;;
27893;SDS011;15240;50.812;4.792;2023-05-29T10:05:12;13.18;;;3.70;;
27893;SDS011;15240;50.812;4.792;2023-05-29T10:08:03;11.02;;;3.17;;
27893;SDS011;15240;50.812;4.792;2023-05-29T10:10:35;14.80;;;3.70;;
27893;SDS011;15240;50.812;4.792;2023-05-29T10:13:38;11.07;;;3.30;;
27893;SDS011;15240;50.812;4.792;2023-05-29T10:16:16;12.67;;;3.67;;
27893;SDS011;15240;50.812;4.792;2023-05-29T10:18:53;13.73;;;3.20;;
27893;SDS011;15240;50.812;4.792;2023-05-29T10:21:24;12.57;;;3.53;;
27893;SDS011;15240;50.812;4.792;2023-05-29T10:24:01;14.83;;;3.90;;
27893;SDS011;15240;50.812;4.792;2023-05-29T10:26:29;14.97;;;3.70;;
27893;SDS011;15240;50.812;4.792;2023-05-29T10:29:17;10.63;;;3.10;;
27893;SDS011;15240;50.812;4.792;2023-05-29T10:40:02;18.03;;;3.70;;
27893;SDS011;15240;50.812;4.792;2023-05-29T10:50:46;15.03;;;3.50;;
27893;SDS011;15240;50.812;4.792;2023-05-29T10:53:17;12.50;;;3.33;;
27893;SDS011;15240;50.812;4.792;2023-05-29T10:55:53;10.23;;;3.20;;
27893;SDS011;15240;50.812;4.792;2023-05-29T11:01:07;13.40;;;2.93;;
27893;SDS011;15240;50.812;4.792;2023-05-29T11:03:35;9.90;;;3.40;;
27893;SDS011;15240;50.812;4.792;2023-05-29T11:06:03;13.20;;;3.17;;
27893;SDS011;15240;50.812;4.792;2023-05-29T11:08:34;13.10;;;3.50;;
27893;SDS011;15240;50.812;4.792;2023-05-29T11:11:03;11.60;;;3.40;;
27893;SDS011;15240;50.812;4.792;2023-05-29T11:13:36;13.07;;;3.37;;
27893;SDS011;15240;50.812;4.792;2023-05-29T11:19:56;11.07;;;3.07;;
27893;SDS011;15240;50.812;4.792;2023-05-29T11:22:27;11.67;;;3.30;;
27893;SDS011;15240;50.812;4.792;2023-05-29T11:25:01;11.07;;;3.43;;
27893;SDS011;15240;50.812;4.792;2023-05-29T11:28:26;10.97;;;3.27;;
27893;SDS011;15240;50.812;4.792;2023-05-29T11:31:29;12.10;;;3.10;;
27893;SDS011;15240;50.812;4.792;2023-05-29T11:34:18;11.23;;;3.10;;
27893;SDS011;15240;50.812;4.792;2023-05-29T11:37:27;8.80;;;2.90;;
27893;SDS011;15240;50.812;4.792;2023-05-29T11:59:24;9.77;;;3.30;;
27893;SDS011;15240;50.812;4.792;2023-05-29T12:02:36;14.80;;;3.40;;
27893;SDS011;15240;50.812;4.792;2023-05-29T12:08:45;10.87;;;3.10;;
27893;SDS011;15240;50.812;4.792;2023-05-29T12:17:58;7.43;;;2.83;;
27893;SDS011;15240;50.812;4.792;2023-05-29T12:21:12;11.53;;;3.67;;
27893;SDS011;15240;50.812;4.792;2023-05-29T12:24:23;9.27;;;3.20;;
27893;SDS011;15240;50.812;4.792;2023-05-29T12:30:40;9.40;;;3.30;;
27893;SDS011;15240;50.812;4.792;2023-05-29T12:37:05;9.60;;;3.13;;
27893;SDS011;15240;50.812;4.792;2023-05-29T12:40:10;11.80;;;3.37;;
27893;SDS011;15240;50.812;4.792;2023-05-29T12:49:52;10.60;;;3.00;;
27893;SDS011;15240;50.812;4.792;2023-05-29T13:44:39;9.57;;;2.83;;
27893;SDS011;15240;50.812;4.792;2023-05-29T15:10:01;7.65;;;3.28;;
27893;SDS011;15240;50.812;4.792;2023-05-29T15:50:08;10.63;;;3.13;;
27893;SDS011;15240;50.812;4.792;2023-05-29T16:36:01;11.77;;;3.17;;
27893;SDS011;15240;50.812;4.792;2023-05-29T16:45:15;11.90;;;3.60;;
27893;SDS011;15240;50.812;4.792;2023-05-29T16:48:27;11.17;;;3.20;;
27893;SDS011;15240;50.812;4.792;2023-05-29T16:51:33;13.53;;;2.80;;
27893;SDS011;15240;50.812;4.792;2023-05-29T17:19:11;10.03;;;2.70;;
27893;SDS011;15240;50.812;4.792;2023-05-29T17:21:38;7.50;;;2.50;;
27893;SDS011;15240;50.812;4.792;2023-05-29T17:24:05;6.97;;;2.60;;
27893;SDS011;15240;50.812;4.792;2023-05-29T17:26:34;8.87;;;2.60;;
27893;SDS011;15240;50.812;4.792;2023-05-29T17:29:05;7.97;;;2.60;;
27893;SDS011;15240;50.812;4.792;2023-05-29T17:31:33;11.97;;;2.90;;
27893;SDS011;15240;50.812;4.792;2023-05-29T17:34:21;9.67;;;2.97;;
27893;SDS011;15240;50.812;4.792;2023-05-29T17:37:41;7.40;;;2.90;;
27893;SDS011;15240;50.812;4.792;2023-05-29T17:46:41;10.70;;;3.00;;
27893;SDS011;15240;50.812;4.792;2023-05-29T17:55:34;9.53;;;2.90;;
27893;SDS011;15240;50.812;4.792;2023-05-29T17:58:54;9.47;;;2.83;;
27893;SDS011;15240;50.812;4.792;2023-05-29T18:05:01;14.23;;;3.20;;
27893;SDS011;15240;50.812;4.792;2023-05-29T18:07:51;8.87;;;2.83;;
27893;SDS011;15240;50.812;4.792;2023-05-29T18:13:52;13.47;;;3.20;;
27893;SDS011;15240;50.812;4.792;2023-05-29T18:16:41;10.33;;;3.10;;
27893;SDS011;15240;50.812;4.792;2023-05-29T18:19:49;11.33;;;3.33;;
27893;SDS011;15240;50.812;4.792;2023-05-29T18:29:11;11.77;;;2.80;;
27893;SDS011;15240;50.812;4.792;2023-05-29T18:31:54;7.93;;;2.83;;
27893;SDS011;15240;50.812;4.792;2023-05-29T18:34:49;11.07;;;3.10;;
27893;SDS011;15240;50.812;4.792;2023-05-29T18:37:59;12.43;;;3.13;;
27893;SDS011;15240;50.812;4.792;2023-05-29T18:41:21;11.50;;;3.20;;
27893;SDS011;15240;50.812;4.792;2023-05-29T18:44:34;14.60;;;3.30;;
27893;SDS011;15240;50.812;4.792;2023-05-29T18:47:44;12.63;;;2.90;;
27893;SDS011;15240;50.812;4.792;2023-05-29T18:53:53;10.87;;;2.80;;
27893;SDS011;15240;50.812;4.792;2023-05-29T18:56:57;10.43;;;3.23;;
27893;SDS011;15240;50.812;4.792;2023-05-29T19:06:28;9.93;;;3.07;;
27893;SDS011;15240;50.812;4.792;2023-05-29T19:09:46;12.13;;;3.50;;
27893;SDS011;15240;50.812;4.792;2023-05-29T19:12:37;12.27;;;3.10;;
27893;SDS011;15240;50.812;4.792;2023-05-29T19:15:23;13.53;;;3.10;;
27893;SDS011;15240;50.812;4.792;2023-05-29T19:18:25;10.67;;;2.70;;
27893;SDS011;15240;50.812;4.792;2023-05-29T19:21:29;12.13;;;3.07;;
27893;SDS011;15240;50.812;4.792;2023-05-29T19:24:09;10.00;;;3.30;;
27893;SDS011;15240;50.812;4.792;2023-05-29T19:26:54;13.60;;;3.43;;
27893;SDS011;15240;50.812;4.792;2023-05-29T19:29:40;14.90;;;3.10;;
27893;SDS011;15240;50.812;4.792;2023-05-29T19:32:14;10.77;;;3.03;;
27893;SDS011;15240;50.812;4.792;2023-05-29T19:37:59;12.73;;;2.97;;
27893;SDS011;15240;50.812;4.792;2023-05-29T19:43:45;15.57;;;2.90;;
27893;SDS011;15240;50.812;4.792;2023-05-29T19:46:49;12.13;;;2.90;;
27893;SDS011;15240;50.812;4.792;2023-05-29T19:49:16;10.00;;;3.13;;
27893;SDS011;15240;50.812;4.792;2023-05-29T19:51:52;13.07;;;3.20;;
27893;SDS011;15240;50.812;4.792;2023-05-29T19:54:46;9.83;;;2.80;;
27893;SDS011;15240;50.812;4.792;2023-05-29T19:57:40;11.17;;;2.90;;
27893;SDS011;15240;50.812;4.792;2023-05-29T20:00:42;9.43;;;2.67;;
27893;SDS011;15240;50.812;4.792;2023-05-29T20:03:24;9.40;;;2.70;;
27893;SDS011;15240;50.812;4.792;2023-05-29T20:06:13;10.53;;;2.73;;
27893;SDS011;15240;50.812;4.792;2023-05-29T20:08:42;14.30;;;2.83;;
27893;SDS011;15240;50.812;4.792;2023-05-29T20:11:10;9.87;;;2.80;;
27893;SDS011;15240;50.812;4.792;2023-05-29T20:13:39;10.73;;;2.60;;
27893;SDS011;15240;50.812;4.792;2023-05-29T20:16:06;9.13;;;2.77;;
27893;SDS011;15240;50.812;4.792;2023-05-29T20:18:39;10.27;;;2.83;;
27893;SDS011;15240;50.812;4.792;2023-05-29T20:21:06;13.73;;;3.13;;
27893;SDS011;15240;50.812;4.792;2023-05-29T20:23:34;8.43;;;2.63;;
27893;SDS011;15240;50.812;4.792;2023-05-29T20:26:03;9.53;;;2.97;;
27893;SDS011;15240;50.812;4.792;2023-05-29T20:28:30;16.40;;;3.23;;
27893;SDS011;15240;50.812;4.792;2023-05-29T20:30:57;17.33;;;3.03;;
27893;SDS011;15240;50.812;4.792;2023-05-29T20:33:23;14.40;;;3.20;;
27893;SDS011;15240;50.812;4.792;2023-05-29T20:35:49;11.63;;;3.07;;
27893;SDS011;15240;50.812;4.792;2023-05-29T20:38:16;8.77;;;2.70;;
27893;SDS011;15240;50.812;4.792;2023-05-29T20:40:42;12.23;;;3.17;;
27893;SDS011;15240;50.812;4.792;2023-05-29T20:43:10;12.23;;;3.10;;
27893;SDS011;15240;50.812;4.792;2023-05-29T20:45:37;10.90;;;3.03;;
27893;SDS011;15240;50.812;4.792;2023-05-29T20:48:04;9.43;;;3.00;;
27893;SDS011;15240;50.812;4.792;2023-05-29T20:50:30;12.53;;;2.93;;
27893;SDS011;15240;50.812;4.792;2023-05-29T20:52:57;12.30;;;3.20;;
27893;SDS011;15240;50.812;4.792;2023-05-29T20:55:23;10.00;;;2.60;;
27893;SDS011;15240;50.812;4.792;2023-05-29T20:57:51;10.20;;;2.83;;
27893;SDS011;15240;50.812;4.792;2023-05-29T21:00:17;16.20;;;3.03;;
27893;SDS011;15240;50.812;4.792;2023-05-29T21:02:43;16.20;;;3.37;;
27893;SDS011;15240;50.812;4.792;2023-05-29T21:05:10;10.67;;;3.03;;
27893;SDS011;15240;50.812;4.792;2023-05-29T21:07:37;14.07;;;3.10;;
27893;SDS011;15240;50.812;4.792;2023-05-29T21:10:03;13.57;;;3.43;;
27893;SDS011;15240;50.812;4.792;2023-05-29T21:12:30;11.40;;;3.00;;
27893;SDS011;15240;50.812;4.792;2023-05-29T21:14:57;9.73;;;2.70;;
27893;SDS011;15240;50.812;4.792;2023-05-29T21:17:24;9.80;;;3.03;;
27893;SDS011;15240;50.812;4.792;2023-05-29T21:19:50;13.17;;;3.17;;
27893;SDS011;15240;50.812;4.792;2023-05-29T21:22:17;16.00;;;3.57;;
27893;SDS011;15240;50.812;4.792;2023-05-29T21:24:43;8.13;;;2.83;;
27893;SDS011;15240;50.812;4.792;2023-05-29T21:27:09;9.43;;;2.63;;
27893;SDS011;15240;50.812;4.792;2023-05-29T21:29:37;11.57;;;3.43;;
27893;SDS011;15240;50.812;4.792;2023-05-29T21:32:06;13.43;;;3.10;;
27893;SDS011;15240;50.812;4.792;2023-05-29T21:34:33;9.70;;;2.77;;
27893;SDS011;15240;50.812;4.792;2023-05-29T21:36:59;11.23;;;2.90;;
27893;SDS011;15240;50.812;4.792;2023-05-29T21:39:26;11.50;;;3.00;;
27893;SDS011;15240;50.812;4.792;2023-05-29T21:41:52;12.87;;;3.30;;
27893;SDS011;15240;50.812;4.792;2023-05-29T21:44:18;10.87;;;3.27;;
27893;SDS011;15240;50.812;4.792;2023-05-29T21:46:45;12.17;;;3.20;;
27893;SDS011;15240;50.812;4.792;2023-05-29T21:49:11;12.13;;;2.70;;
27893;SDS011;15240;50.812;4.792;2023-05-29T21:51:40;10.00;;;2.70;;
27893;SDS011;15240;50.812;4.792;2023-05-29T21:54:08;11.73;;;3.20;;
27893;SDS011;15240;50.812;4.792;2023-05-29T21:56:35;11.70;;;3.00;;